createdAt,value
2018-12-19T00:00:30.217Z,22.73
2018-12-19T00:03:00.208Z,20.13
2018-12-19T00:05:30.286Z,19.77
2018-12-19T00:08:00.302Z,20.17
2018-12-19T00:10:28.375Z,20.43
2018-12-19T00:12:56.441Z,20.00
2018-12-19T00:15:24.535Z,19.40
2018-12-19T00:17:53.532Z,20.27
2018-12-19T00:20:21.684Z,20.03
2018-12-19T00:22:49.835Z,20.57
2018-12-19T00:25:17.929Z,20.47
2018-12-19T00:27:48.019Z,20.37
2018-12-19T00:30:18.062Z,20.73
2018-12-19T00:32:48.129Z,21.33
2018-12-19T00:35:18.211Z,21.07
2018-12-19T00:37:46.388Z,26.37
2018-12-19T00:40:14.449Z,25.60
2018-12-19T00:42:42.497Z,21.93
2018-12-19T00:45:10.601Z,20.73
2018-12-19T00:47:38.766Z,19.77
2018-12-19T00:50:06.841Z,21.30
2018-12-19T00:52:36.731Z,24.37
2018-12-19T00:55:04.730Z,22.93
2018-12-19T00:57:32.796Z,21.37
2018-12-19T01:00:00.871Z,20.97
2018-12-19T01:02:28.958Z,20.33
2018-12-19T01:04:57.058Z,20.10
2018-12-19T01:07:25.192Z,19.70
2018-12-19T01:09:53.370Z,21.00
2018-12-19T01:12:21.631Z,23.20
2018-12-19T01:14:49.664Z,22.60
2018-12-19T01:17:17.790Z,19.90
2018-12-19T01:19:45.848Z,20.87
2018-12-19T01:22:13.931Z,19.87
2018-12-19T01:24:41.966Z,20.40
2018-12-19T01:27:10.066Z,21.03
2018-12-19T01:29:38.102Z,20.73
2018-12-19T01:32:06.146Z,20.60
2018-12-19T01:34:34.286Z,20.57
2018-12-19T01:37:02.336Z,20.27
2018-12-19T01:39:30.404Z,20.70
2018-12-19T01:41:58.499Z,21.17
2018-12-19T01:44:26.566Z,20.23
2018-12-19T01:46:54.649Z,20.83
2018-12-19T01:49:22.814Z,20.97
2018-12-19T01:51:50.846Z,20.70
2018-12-19T01:54:18.973Z,21.77
2018-12-19T01:56:47.054Z,20.97
2018-12-19T01:59:15.213Z,22.03
2018-12-19T02:01:43.245Z,21.57
2018-12-19T02:04:11.345Z,20.23
2018-12-19T02:06:39.416Z,20.50
2018-12-19T02:09:07.489Z,20.53
2018-12-19T02:11:35.529Z,20.57
2018-12-19T02:14:03.568Z,21.10
2018-12-19T02:16:31.602Z,20.83
2018-12-19T02:18:59.679Z,20.13
2018-12-19T02:21:27.789Z,20.47
2018-12-19T02:23:56.008Z,20.20
2018-12-19T02:26:24.110Z,21.60
2018-12-19T02:28:52.166Z,20.57
2018-12-19T02:31:20.237Z,21.70
2018-12-19T02:33:48.315Z,20.30
2018-12-19T02:36:16.397Z,21.10
2018-12-19T02:38:44.467Z,20.03
2018-12-19T02:41:12.558Z,20.43
2018-12-19T02:43:40.620Z,20.00
2018-12-19T02:46:08.710Z,21.77
2018-12-19T02:51:34.848Z,21.43
2018-12-19T02:54:02.886Z,21.50
2018-12-19T02:56:31.057Z,20.77
2018-12-19T02:58:59.131Z,21.70
2018-12-19T03:01:27.186Z,21.53
2018-12-19T03:03:55.382Z,21.70
2018-12-19T03:06:23.450Z,21.73
2018-12-19T03:08:51.522Z,20.57
2018-12-19T03:11:19.596Z,20.83
2018-12-19T03:13:49.638Z,21.40
2018-12-19T03:16:17.706Z,19.63
2018-12-19T03:18:45.758Z,21.20
2018-12-19T03:21:13.927Z,20.80
2018-12-19T03:23:42.002Z,21.00
2018-12-19T03:26:10.038Z,22.37
2018-12-19T03:28:38.152Z,21.83
2018-12-19T03:31:06.211Z,21.47
2018-12-19T03:33:36.270Z,23.43
2018-12-19T03:36:04.406Z,22.70
2018-12-19T03:38:32.529Z,21.03
2018-12-19T03:41:00.586Z,21.17
2018-12-19T03:43:28.726Z,21.83
2018-12-19T03:45:56.824Z,20.97
2018-12-19T03:51:27.874Z,21.90
2018-12-19T03:53:55.936Z,20.07
2018-12-19T03:56:23.979Z,20.33
2018-12-19T03:58:52.185Z,21.07
2018-12-19T04:01:20.247Z,24.33
2018-12-19T04:03:48.332Z,20.70
2018-12-19T04:06:16.494Z,20.63
2018-12-19T04:08:44.540Z,32.07
2018-12-19T04:11:12.588Z,25.53
2018-12-19T04:13:40.689Z,21.40
2018-12-19T04:16:08.741Z,21.87
2018-12-19T04:18:37.074Z,22.63
2018-12-19T04:21:05.235Z,19.13
2018-12-19T04:23:33.333Z,20.93
2018-12-19T04:26:01.378Z,20.70
2018-12-19T04:28:29.550Z,20.10
2018-12-19T04:30:57.686Z,22.57
2018-12-19T04:33:25.725Z,21.60
2018-12-19T04:35:54.086Z,20.30
2018-12-19T04:38:22.233Z,20.83
2018-12-19T04:40:50.417Z,20.57
2018-12-19T04:43:18.499Z,20.33
2018-12-19T04:45:46.583Z,20.60
2018-12-19T04:48:14.743Z,19.97
2018-12-19T04:50:42.813Z,20.40
2018-12-19T04:53:10.886Z,21.20
2018-12-19T04:55:38.986Z,20.70
2018-12-19T04:58:07.026Z,19.67
2018-12-19T05:00:35.207Z,20.83
2018-12-19T05:03:03.249Z,31.43
2018-12-19T05:05:31.342Z,22.17
2018-12-19T05:07:59.405Z,20.17
2018-12-19T05:10:27.607Z,21.53
2018-12-19T05:12:55.705Z,20.27
2018-12-19T05:15:23.841Z,21.13
2018-12-19T05:17:51.886Z,20.17
2018-12-19T05:20:19.918Z,20.63
2018-12-19T05:22:48.056Z,22.47
2018-12-19T05:25:16.125Z,24.47
2018-12-19T05:27:44.206Z,23.03
2018-12-19T05:30:12.279Z,21.50
2018-12-19T05:32:40.442Z,21.33
2018-12-19T05:35:08.515Z,20.70
2018-12-19T05:37:36.591Z,22.80
2018-12-19T05:40:06.313Z,30.57
2018-12-19T05:42:34.369Z,25.07
2018-12-19T05:45:02.658Z,40.17
2018-12-19T05:47:30.727Z,34.87
2018-12-19T05:49:58.793Z,27.40
2018-12-19T05:52:27.277Z,26.23
2018-12-19T05:54:55.535Z,38.37
2018-12-19T05:57:23.801Z,30.23
2018-12-19T05:59:52.046Z,65.67
2018-12-19T06:02:20.172Z,80.07
2018-12-19T06:04:48.238Z,96.40
2018-12-19T06:07:16.346Z,137.17
2018-12-19T06:09:44.560Z,32.30
2018-12-19T06:12:12.659Z,22.80
2018-12-19T06:14:40.834Z,33.03
2018-12-19T06:17:08.909Z,37.37
2018-12-19T06:19:36.973Z,27.00
2018-12-19T06:22:05.051Z,25.60
2018-12-19T06:24:33.158Z,22.90
2018-12-19T06:27:01.306Z,22.83
2018-12-19T06:29:29.345Z,21.83
2018-12-19T06:31:57.447Z,19.90
2018-12-19T06:34:25.513Z,22.50
2018-12-19T06:36:53.583Z,21.43
2018-12-19T06:39:21.659Z,21.90
2018-12-19T06:41:49.723Z,22.50
2018-12-19T06:44:17.793Z,20.87
2018-12-19T06:46:45.975Z,20.47
2018-12-19T06:49:14.046Z,22.10
2018-12-19T06:51:42.114Z,22.00
2018-12-19T06:54:10.158Z,21.20
2018-12-19T06:56:38.258Z,22.07
2018-12-19T06:59:06.331Z,22.17
2018-12-19T07:01:34.371Z,21.87
2018-12-19T07:04:02.473Z,22.17
2018-12-19T07:06:30.550Z,20.57
2018-12-19T07:08:58.594Z,21.50
2018-12-19T07:11:26.690Z,20.67
2018-12-19T07:13:54.764Z,22.47
2018-12-19T07:16:22.831Z,22.50
2018-12-19T07:22:02.591Z,22.07
2018-12-19T07:24:30.649Z,23.43
2018-12-19T07:38:49.508Z,30.40
2018-12-19T07:41:17.550Z,28.87
2018-12-19T07:43:45.650Z,26.03
2018-12-19T07:49:10.985Z,24.10
2018-12-19T07:54:36.306Z,24.53
2018-12-19T07:57:04.474Z,24.33
2018-12-19T07:59:32.554Z,24.83
2018-12-19T08:02:00.623Z,28.07
2018-12-19T08:04:29.101Z,24.20
2018-12-19T08:06:57.131Z,24.87
2018-12-19T08:09:25.251Z,25.70
2018-12-19T08:11:53.421Z,26.67
2018-12-19T08:14:21.494Z,28.57
2018-12-19T08:16:49.529Z,33.97
2018-12-19T08:19:17.637Z,29.30
2018-12-19T08:21:45.706Z,26.97
2018-12-19T08:24:13.777Z,26.27
2018-12-19T08:26:41.849Z,27.93
2018-12-19T08:29:10.025Z,27.20
2018-12-19T08:31:38.204Z,30.27
2018-12-19T08:34:06.579Z,28.57
2018-12-19T08:36:34.615Z,27.60
2018-12-19T08:39:02.681Z,27.20
2018-12-19T08:41:30.795Z,26.97
2018-12-19T08:43:58.883Z,26.20
2018-12-19T08:46:26.938Z,27.00
2018-12-19T08:48:55.010Z,29.33
2018-12-19T08:51:23.078Z,27.23
2018-12-19T08:53:51.153Z,28.67
2018-12-19T08:56:19.189Z,31.30
2018-12-19T08:58:47.299Z,31.80
2018-12-19T09:01:15.385Z,32.27
2018-12-19T09:03:43.458Z,34.73
2018-12-19T09:06:11.494Z,31.83
2018-12-19T09:11:36.942Z,26.10
2018-12-19T09:14:05.013Z,26.37
2018-12-19T09:16:33.085Z,26.30
2018-12-19T09:19:01.142Z,26.40
2018-12-19T09:21:29.234Z,26.27
2018-12-19T09:23:57.277Z,26.77
2018-12-19T09:26:25.370Z,25.90
2018-12-19T09:28:53.451Z,26.43
2018-12-19T09:31:21.518Z,25.63
2018-12-19T09:33:49.573Z,25.70
2018-12-19T09:36:17.662Z,26.17
2018-12-19T09:38:45.732Z,26.97
2018-12-19T09:41:13.765Z,27.67
2018-12-19T09:43:41.905Z,24.70
2018-12-19T09:46:09.947Z,24.77
2018-12-19T09:48:38.018Z,25.70
2018-12-19T09:51:06.991Z,24.87
2018-12-19T09:53:35.076Z,25.70
2018-12-19T09:56:03.109Z,22.27
2018-12-19T09:58:31.225Z,25.87
2018-12-19T10:00:59.264Z,25.97
2018-12-19T10:03:27.306Z,25.13
2018-12-19T10:05:55.446Z,26.73
2018-12-19T10:08:23.509Z,25.10
2018-12-19T10:10:51.602Z,24.37
2018-12-19T10:13:19.643Z,24.70
2018-12-19T10:15:47.829Z,25.33
2018-12-19T10:18:15.857Z,29.87
2018-12-19T10:20:43.976Z,27.70
2018-12-19T10:23:13.070Z,27.73
2018-12-19T10:25:41.115Z,28.27
2018-12-19T10:28:09.213Z,26.97
2018-12-19T10:30:39.221Z,29.13
2018-12-19T10:33:07.257Z,26.83
2018-12-19T10:35:35.386Z,27.20
2018-12-19T10:38:03.450Z,30.30
2018-12-19T10:40:31.519Z,25.77
2018-12-19T10:42:59.586Z,25.03
2018-12-19T10:45:27.661Z,26.57
2018-12-19T10:47:55.729Z,28.77
2018-12-19T10:50:23.808Z,28.07
2018-12-19T10:52:51.897Z,26.77
2018-12-19T10:55:20.050Z,27.00
2018-12-19T10:57:48.222Z,27.63
2018-12-19T11:00:21.922Z,26.13
2018-12-19T11:02:50.006Z,26.53
2018-12-19T11:05:18.181Z,25.63
2018-12-19T11:07:46.247Z,26.23
2018-12-19T11:10:14.318Z,28.03
2018-12-19T11:12:42.370Z,27.20
2018-12-19T11:15:10.461Z,27.40
2018-12-19T11:17:38.541Z,27.80
2018-12-19T11:20:08.849Z,27.10
2018-12-19T11:22:36.881Z,24.30
2018-12-19T11:25:05.155Z,25.50
2018-12-19T11:27:33.185Z,25.90
2018-12-19T11:30:01.244Z,25.50
2018-12-19T11:32:29.292Z,24.40
2018-12-19T11:34:57.494Z,25.03
2018-12-19T11:37:25.541Z,25.90
2018-12-19T11:39:53.638Z,25.00
2018-12-19T11:42:21.789Z,25.20
2018-12-19T11:44:49.894Z,23.07
2018-12-19T11:47:17.949Z,25.07
2018-12-19T11:49:46.145Z,25.97
2018-12-19T11:52:14.212Z,27.43
2018-12-19T11:54:42.300Z,25.97
2018-12-19T11:57:10.682Z,28.03
2018-12-19T11:59:38.726Z,26.73
2018-12-19T12:02:06.904Z,28.67
2018-12-19T12:04:34.953Z,26.20
2018-12-19T12:07:05.290Z,26.50
2018-12-19T12:09:33.370Z,25.20
2018-12-19T12:12:01.435Z,23.97
2018-12-19T12:14:29.545Z,24.53
2018-12-19T12:16:57.598Z,24.73
2018-12-19T12:19:25.758Z,25.87
2018-12-19T12:21:53.929Z,23.10
2018-12-19T12:24:22.035Z,25.43
2018-12-19T12:26:50.082Z,22.93
2018-12-19T12:29:18.157Z,24.00
2018-12-19T12:31:46.227Z,24.53
2018-12-19T12:34:14.275Z,25.90
2018-12-19T12:36:42.406Z,24.87
2018-12-19T12:39:10.515Z,23.47
2018-12-19T12:41:38.623Z,26.30
2018-12-19T12:44:07.723Z,27.03
2018-12-19T12:46:35.822Z,28.37
2018-12-19T12:49:03.966Z,28.63
2018-12-19T12:51:32.151Z,29.80
2018-12-19T12:54:00.306Z,28.67
2018-12-19T12:56:28.382Z,28.73
2018-12-19T12:58:56.558Z,27.53
2018-12-19T13:01:24.635Z,30.73
2018-12-19T13:03:52.790Z,31.97
2018-12-19T13:06:20.901Z,28.40
2018-12-19T13:08:48.952Z,28.23
2018-12-19T13:11:17.021Z,32.13
2018-12-19T13:13:45.089Z,34.53
2018-12-19T13:16:13.150Z,29.93
2018-12-19T13:18:41.220Z,31.00
2018-12-19T13:21:09.356Z,33.57
2018-12-19T13:23:37.481Z,30.23
2018-12-19T13:26:05.546Z,29.13
2018-12-19T13:28:33.624Z,26.60
2018-12-19T13:31:01.683Z,25.37
2018-12-19T13:33:29.809Z,28.57
2018-12-19T13:35:57.934Z,33.67
2018-12-19T13:38:26.010Z,35.37
2018-12-19T13:40:54.091Z,33.27
2018-12-19T13:43:22.257Z,31.00
2018-12-19T13:45:50.320Z,29.47
2018-12-19T13:48:18.390Z,30.20
2018-12-19T13:50:46.476Z,30.33
2018-12-19T13:53:14.633Z,28.80
2018-12-19T13:55:42.679Z,26.30
2018-12-19T13:58:10.789Z,26.00
2018-12-19T14:00:38.863Z,28.20
2018-12-19T14:03:07.045Z,28.03
2018-12-19T14:05:35.274Z,25.87
2018-12-19T14:08:03.469Z,26.87
2018-12-19T14:10:31.609Z,27.13
2018-12-19T14:12:59.669Z,27.67
2018-12-19T14:15:27.706Z,27.57
2018-12-19T14:17:56.179Z,26.40
2018-12-19T14:23:21.290Z,27.03
2018-12-19T14:25:49.383Z,25.93
2018-12-19T14:28:17.649Z,26.73
2018-12-19T14:30:47.038Z,29.90
2018-12-19T14:33:16.186Z,26.77
2018-12-19T14:38:42.798Z,25.70
2018-12-19T15:00:52.074Z,29.87
2018-12-19T15:03:20.145Z,30.83
2018-12-19T15:05:48.215Z,28.63
2018-12-19T15:08:29.418Z,29.53
2018-12-19T15:10:57.457Z,29.70
2018-12-19T15:13:25.494Z,28.47
2018-12-19T15:15:59.292Z,27.23
2018-12-19T15:18:27.640Z,26.70
2018-12-19T15:20:55.691Z,27.73
2018-12-19T15:23:23.772Z,29.47
2018-12-19T15:25:51.833Z,32.13
2018-12-19T15:28:19.877Z,35.17
2018-12-19T15:30:48.068Z,31.93
2018-12-19T15:33:16.185Z,29.93
2018-12-19T15:35:44.317Z,32.33
2018-12-19T15:38:12.443Z,33.50
2018-12-19T15:40:40.494Z,32.37
2018-12-19T15:43:08.692Z,29.43
2018-12-19T15:45:36.800Z,31.67
2018-12-19T15:48:05.005Z,34.23
2018-12-19T15:50:33.089Z,34.67
2018-12-19T15:53:01.184Z,35.80
2018-12-19T15:55:29.296Z,35.47
2018-12-19T15:57:57.386Z,35.30
2018-12-19T16:00:25.458Z,34.50
2018-12-19T16:02:53.512Z,36.47
2018-12-19T16:05:21.603Z,35.10
2018-12-19T16:07:49.671Z,33.77
2018-12-19T16:10:17.741Z,35.90
2018-12-19T16:12:45.796Z,33.60
2018-12-19T16:15:13.897Z,34.07
2018-12-19T16:17:42.065Z,35.83
2018-12-19T16:20:10.126Z,35.93
2018-12-19T16:22:38.197Z,34.67
2018-12-19T16:25:06.270Z,36.47
2018-12-19T16:27:34.336Z,39.83
2018-12-19T16:30:02.422Z,41.70
2018-12-19T16:32:30.544Z,39.27
2018-12-19T16:34:58.682Z,40.13
2018-12-19T16:37:26.834Z,36.73
2018-12-19T16:39:54.902Z,33.07
2018-12-19T16:42:23.955Z,33.60
2018-12-19T16:44:52.074Z,33.73
2018-12-19T16:47:20.169Z,31.20
2018-12-19T16:49:48.218Z,30.00
2018-12-19T16:52:16.391Z,35.80
2018-12-19T16:54:44.437Z,37.20
2018-12-19T17:00:10.437Z,35.37
2018-12-19T17:02:38.471Z,35.67
2018-12-19T17:05:06.665Z,37.63
2018-12-19T17:10:31.983Z,43.07
2018-12-19T17:13:00.079Z,40.73
2018-12-19T17:15:28.233Z,40.37
2018-12-19T17:17:56.303Z,42.53
2018-12-19T17:23:34.659Z,31.77
2018-12-19T17:26:02.697Z,31.30
2018-12-19T17:28:30.777Z,30.27
2018-12-19T17:30:58.819Z,32.70
2018-12-19T17:33:26.914Z,31.13
2018-12-19T17:35:54.974Z,30.37
2018-12-19T17:38:23.024Z,28.77
2018-12-19T17:40:51.134Z,28.93
2018-12-19T17:43:19.235Z,29.10
2018-12-19T17:45:47.383Z,29.90
2018-12-19T17:48:15.453Z,32.00
2018-12-19T17:50:43.507Z,31.67
2018-12-19T17:53:11.595Z,32.63
2018-12-19T17:55:39.638Z,32.57
2018-12-19T17:58:07.733Z,29.10
2018-12-19T18:00:35.829Z,27.47
2018-12-19T18:03:03.959Z,28.20
2018-12-19T18:05:32.052Z,27.57
2018-12-19T18:08:00.097Z,29.20
2018-12-19T18:10:28.198Z,28.77
2018-12-19T18:12:56.253Z,32.73
2018-12-19T18:15:24.294Z,32.30
2018-12-19T18:17:52.413Z,26.10
2018-12-19T18:20:20.458Z,30.27
2018-12-19T18:22:48.557Z,26.83
2018-12-19T18:25:16.621Z,24.93
2018-12-19T18:27:44.698Z,25.43
2018-12-19T18:30:12.882Z,24.37
2018-12-19T18:32:40.922Z,24.07
2018-12-19T18:35:09.132Z,25.27
2018-12-19T18:37:37.186Z,28.53
2018-12-19T18:40:05.243Z,33.90
2018-12-19T18:42:33.286Z,33.13
2018-12-19T18:45:02.379Z,29.83
2018-12-19T18:47:30.507Z,30.13
2018-12-19T18:49:59.598Z,29.70
2018-12-19T18:52:27.674Z,32.13
2018-12-19T18:54:55.746Z,28.50
2018-12-19T18:57:23.795Z,29.50
2018-12-19T18:59:51.916Z,30.57
2018-12-19T19:02:19.963Z,24.53
2018-12-19T19:04:48.000Z,27.07
2018-12-19T19:07:16.051Z,25.40
2018-12-19T19:09:44.413Z,27.87
2018-12-19T19:12:12.484Z,27.93
2018-12-19T19:14:40.526Z,26.60
2018-12-19T19:17:08.781Z,25.50
2018-12-19T19:19:37.187Z,24.67
2018-12-19T19:22:05.450Z,24.90
2018-12-19T19:24:33.535Z,24.20
2018-12-19T19:27:01.622Z,24.70
2018-12-19T19:29:29.984Z,30.43
2018-12-19T19:31:58.045Z,33.33
2018-12-19T19:34:26.164Z,36.03
2018-12-19T19:36:55.496Z,30.83
2018-12-19T19:39:23.612Z,31.37
2018-12-19T19:41:51.770Z,31.40
2018-12-19T19:44:19.840Z,29.93
2018-12-19T19:46:47.906Z,28.47
2018-12-19T19:49:16.011Z,27.60
2018-12-19T19:51:44.042Z,28.77
2018-12-19T19:54:12.206Z,30.57
2018-12-19T19:56:40.315Z,31.50
2018-12-19T19:59:08.483Z,28.57
2018-12-19T20:01:36.569Z,26.43
2018-12-19T20:04:04.716Z,27.53
2018-12-19T20:06:32.806Z,27.00
2018-12-19T20:09:08.999Z,28.20
2018-12-19T20:11:38.992Z,25.90
2018-12-19T20:14:07.043Z,24.43
2018-12-19T20:19:27.305Z,29.97
2018-12-19T20:21:57.129Z,34.67
2018-12-19T20:24:33.747Z,28.27
2018-12-19T20:27:02.054Z,28.13
2018-12-19T20:29:31.418Z,28.93
2018-12-19T20:31:59.635Z,26.10
2018-12-19T20:34:27.822Z,26.10
2018-12-19T20:36:56.004Z,27.00
2018-12-19T20:39:27.068Z,26.63
2018-12-19T20:41:56.061Z,25.43
2018-12-19T20:44:25.202Z,23.87
2018-12-19T20:46:53.431Z,24.60
2018-12-19T20:52:06.046Z,24.23
2018-12-19T20:54:34.115Z,24.47
2018-12-19T20:57:02.228Z,24.33
2018-12-19T20:59:30.394Z,23.47
2018-12-19T21:01:58.571Z,24.77
2018-12-19T21:04:26.610Z,23.90
2018-12-19T21:06:54.680Z,23.20
2018-12-19T21:09:22.730Z,22.33
2018-12-19T21:11:50.858Z,22.50
2018-12-19T21:14:18.957Z,23.37
2018-12-19T21:16:52.929Z,22.97
2018-12-19T21:19:20.966Z,20.87
2018-12-19T21:21:49.042Z,21.73
2018-12-19T21:24:17.100Z,19.80
2018-12-19T21:26:45.145Z,21.00
2018-12-19T21:29:13.294Z,23.77
2018-12-19T21:31:41.332Z,25.63
2018-12-19T21:34:09.377Z,26.43
2018-12-19T21:36:37.463Z,21.60
2018-12-19T21:39:07.676Z,21.67
2018-12-19T21:41:35.726Z,22.93
2018-12-19T21:44:03.882Z,19.20
2018-12-19T21:46:31.957Z,20.73
2018-12-19T21:49:01.174Z,21.33
2018-12-19T21:51:29.252Z,22.57
2018-12-19T21:53:57.430Z,22.77
2018-12-19T21:56:25.636Z,23.33
2018-12-19T21:58:53.673Z,20.40
2018-12-19T22:01:21.819Z,20.17
2018-12-19T22:03:50.117Z,20.33
2018-12-19T22:06:18.262Z,19.13
2018-12-19T22:08:46.451Z,18.43
2018-12-19T22:11:15.541Z,20.23
2018-12-19T22:13:43.627Z,19.43
2018-12-19T22:19:08.898Z,19.73
2018-12-19T22:27:36.265Z,20.07
2018-12-19T22:30:06.356Z,21.03
2018-12-19T22:32:34.512Z,20.53
2018-12-19T22:35:02.634Z,18.93
2018-12-19T22:37:30.765Z,18.67
2018-12-19T22:39:58.873Z,17.83
2018-12-19T22:42:27.050Z,22.60
2018-12-19T22:44:55.217Z,20.63
2018-12-19T22:47:23.374Z,20.60
2018-12-19T22:49:51.429Z,19.93
2018-12-19T22:52:19.576Z,19.30
2018-12-19T22:54:47.687Z,18.30
2018-12-19T22:57:15.895Z,19.00
2018-12-19T22:59:44.037Z,18.67
2018-12-19T23:02:17.910Z,17.93
2018-12-19T23:04:46.145Z,18.67
2018-12-19T23:07:14.214Z,27.87
2018-12-19T23:09:42.262Z,20.73
2018-12-19T23:12:10.609Z,18.37
2018-12-19T23:14:38.706Z,18.53
2018-12-19T23:17:18.045Z,17.40
2018-12-19T23:19:52.154Z,17.70
2018-12-19T23:22:25.947Z,18.97
2018-12-19T23:24:59.982Z,18.77
2018-12-19T23:27:28.276Z,19.03
2018-12-19T23:29:58.557Z,18.53
2018-12-19T23:32:28.686Z,20.50
2018-12-19T23:34:56.869Z,20.87
2018-12-19T23:37:25.038Z,21.33
2018-12-19T23:39:54.138Z,20.23
2018-12-19T23:42:22.214Z,18.90
2018-12-19T23:44:50.391Z,19.37
2018-12-19T23:47:18.656Z,19.93
2018-12-19T23:49:46.913Z,18.57
2018-12-19T23:52:15.107Z,19.27
2018-12-19T23:54:43.210Z,18.47
2018-12-19T23:57:11.355Z,19.27
2018-12-19T23:59:39.546Z,19.37
